Terminal Aerodrome Forecast
Issued by NWS

Home | Current Version | Previous Version | Text Only | Print | Product List | Glossary On
Versions: 1 2 3 4 5 6 7 8 9 10 11 12 13 14 15 16 17 18 19 20 21 22 23
000
FTUS43 KGRB 012300
TAFATW
TAF
KATW 012332Z 0200/0224 15010KT P6SM OVC010
      TEMPO 0203/0205 5SM -RA BR BKN007
     FM020500 14005KT 5SM -SHRA BR SCT007 BKN015
     FM020900 16003KT 1 1/2SM BR SCT002 OVC006
      TEMPO 0210/0214 1/2SM FG VV002
     FM021400 13003KT 2SM BR SCT008 BKN012
     FM021800 13005KT 5SM BR SCT012 BKN025 PROB30 0222/0224 2SM
      -TSRA OVC012CB=

USA.gov is the U.S. government's official web portal to all federal, state and local government web resources and services.